Time;durP1;ratioP1;P1;durP2;ratioP2;P2;SDS_P1;SDS_P2;PMS_P1;PMS_P2;Temp;Humidity;BMP_temperature;BMP_pressure;BME280_temperature;BME280_humidity;BME280_pressure;Samples;Min_cycle;Max_cycle;Signal;HPM_P1;HPM_P2
2023/12/25 00:02:21;;;;;;;;;;;19.80;63.60;;;;;;5057014;28;19925;-64
2023/12/25 00:04:47;;;;;;;;;;;19.90;63.60;;;;;;5075271;28;20007;-64
2023/12/25 00:07:12;;;;;;;;;;;19.80;63.60;;;;;;5074948;28;19928;-64
2023/12/25 00:09:38;;;;;;;;;;;19.90;63.60;;;;;;5076917;28;20367;-64
2023/12/25 00:12:03;;;;;;;;;;;19.80;63.60;;;;;;5094170;28;19924;-64
2023/12/25 00:14:29;;;;;;;;;;;19.80;63.60;;;;;;5075946;28;19924;-64
2023/12/25 00:16:54;;;;;;;;;;;19.80;63.60;;;;;;5094311;28;20406;-64
2023/12/25 00:19:20;;;;;;;;;;;19.80;63.50;;;;;;5094240;28;19921;-64
2023/12/25 00:21:45;;;;;;;;;;;19.80;63.50;;;;;;5072252;28;19931;-64
2023/12/25 00:24:11;;;;;;;;;;;19.80;63.50;;;;;;5072530;28;19935;-64
2023/12/25 00:26:40;;;;;;;;;;;19.80;63.50;;;;;;5073115;28;19928;-64
2023/12/25 00:29:09;;;;;;;;;;;19.80;63.50;;;;;;5073152;28;19974;-64
2023/12/25 00:31:34;;;;;;;;;;;19.80;63.50;;;;;;5074636;28;19936;-64
2023/12/25 00:34:00;;;;;;;;;;;19.80;63.50;;;;;;5073358;28;20019;-64
2023/12/25 00:36:25;;;;;;;;;;;19.70;63.50;;;;;;5071923;28;19974;-64
2023/12/25 00:38:51;;;;;;;;;;;19.70;63.50;;;;;;5072960;28;19924;-64
2023/12/25 00:41:16;;;;;;;;;;;19.70;63.50;;;;;;5073541;28;20026;-64
2023/12/25 00:43:42;;;;;;;;;;;19.70;63.40;;;;;;5073478;28;19977;-64
2023/12/25 00:46:07;;;;;;;;;;;19.70;63.50;;;;;;5072440;28;19925;-64
2023/12/25 00:48:33;;;;;;;;;;;19.70;63.50;;;;;;5071704;28;19924;-64
2023/12/25 00:50:58;;;;;;;;;;;19.70;63.50;;;;;;5072100;28;19942;-64
2023/12/25 00:53:23;;;;;;;;;;;19.70;63.50;;;;;;5073414;28;20379;-64
2023/12/25 00:55:49;;;;;;;;;;;19.70;63.40;;;;;;5072097;28;20011;-64
2023/12/25 00:58:14;;;;;;;;;;;19.70;63.50;;;;;;5072123;28;21110;-64
2023/12/25 01:00:40;;;;;;;;;;;19.70;63.40;;;;;;5073749;28;19924;-64
2023/12/25 01:03:05;;;;;;;;;;;19.70;64.00;;;;;;5071412;28;19968;-64
2023/12/25 01:05:31;;;;;;;;;;;19.70;63.40;;;;;;5072331;28;19931;-63
2023/12/25 01:07:56;;;;;;;;;;;19.60;63.40;;;;;;5072179;28;19932;-64
2023/12/25 01:10:22;;;;;;;;;;;19.60;63.30;;;;;;5070550;28;19925;-63
2023/12/25 01:12:47;;;;;;;;;;;19.60;63.40;;;;;;5072195;28;19924;-64
2023/12/25 01:15:13;;;;;;;;;;;19.60;63.30;;;;;;5071513;28;20027;-64
2023/12/25 01:17:38;;;;;;;;;;;19.60;63.30;;;;;;5072752;28;19928;-63
2023/12/25 01:20:04;;;;;;;;;;;19.60;63.30;;;;;;5073063;28;19962;-64
2023/12/25 01:22:29;;;;;;;;;;;19.60;63.30;;;;;;5071576;28;20318;-64
2023/12/25 01:24:55;;;;;;;;;;;19.60;63.30;;;;;;5070840;28;19932;-64
2023/12/25 01:27:20;;;;;;;;;;;19.60;63.30;;;;;;5071872;28;19924;-64
2023/12/25 01:29:46;;;;;;;;;;;19.60;63.20;;;;;;5071938;28;19971;-63
2023/12/25 01:32:11;;;;;;;;;;;19.60;63.30;;;;;;5071568;28;19935;-63
2023/12/25 01:34:37;;;;;;;;;;;19.60;63.20;;;;;;5071916;28;19924;-64
2023/12/25 01:37:04;;;;;;;;;;;19.60;63.20;;;;;;5073035;28;19924;-64
2023/12/25 01:39:29;;;;;;;;;;;19.50;63.10;;;;;;5071291;28;19925;-63
2023/12/25 01:41:55;;;;;;;;;;;19.50;63.10;;;;;;5071387;28;19924;-63
2023/12/25 01:44:20;;;;;;;;;;;19.50;63.10;;;;;;5071693;28;19993;-63
2023/12/25 01:46:46;;;;;;;;;;;19.50;63.10;;;;;;5070890;28;19929;-63
2023/12/25 01:49:11;;;;;;;;;;;19.50;63.10;;;;;;5071394;28;20077;-63
2023/12/25 01:51:37;;;;;;;;;;;19.50;63.10;;;;;;5072428;28;19951;-63
2023/12/25 01:54:04;;;;;;;;;;;19.50;63.10;;;;;;5070884;28;19924;-63
2023/12/25 01:56:30;;;;;;;;;;;19.50;63.10;;;;;;5071518;28;19975;-63
2023/12/25 01:58:55;;;;;;;;;;;19.50;63.10;;;;;;5053808;28;19972;-63
2023/12/25 02:01:21;;;;;;;;;;;19.50;63.10;;;;;;5071835;28;19924;-63
2023/12/25 02:03:47;;;;;;;;;;;19.50;63.10;;;;;;5074102;28;19924;-63
2023/12/25 02:06:13;;;;;;;;;;;19.50;63.10;;;;;;5075075;28;19947;-63
2023/12/25 02:08:38;;;;;;;;;;;19.50;63.10;;;;;;5074828;28;20295;-63
2023/12/25 02:11:04;;;;;;;;;;;19.50;63.00;;;;;;5075030;28;19921;-63
2023/12/25 02:13:29;;;;;;;;;;;19.50;63.00;;;;;;5075975;28;19931;-63
2023/12/25 02:15:55;;;;;;;;;;;19.50;63.00;;;;;;5074778;28;19968;-63
2023/12/25 02:18:20;;;;;;;;;;;19.50;63.60;;;;;;5075701;28;19924;-63
2023/12/25 02:20:46;;;;;;;;;;;19.50;63.00;;;;;;5074291;28;20030;-63
2023/12/25 02:23:12;;;;;;;;;;;19.50;63.00;;;;;;5093347;28;20010;-63
2023/12/25 02:26:05;;;;;;;;;;;19.50;63.00;;;;;;5096707;28;20435;-64
2023/12/25 02:28:30;;;;;;;;;;;19.40;62.90;;;;;;5075311;28;19947;-63
2023/12/25 02:30:56;;;;;;;;;;;19.40;62.90;;;;;;5078503;28;20352;-65
2023/12/25 02:33:21;;;;;;;;;;;19.50;63.00;;;;;;5096656;28;19924;-64
2023/12/25 02:35:47;;;;;;;;;;;19.40;62.90;;;;;;5095865;28;20355;-64
2023/12/25 02:38:12;;;;;;;;;;;19.40;62.90;;;;;;5077722;28;19931;-64
2023/12/25 02:40:41;;;;;;;;;;;19.40;62.90;;;;;;5078187;28;19924;-64
2023/12/25 02:43:10;;;;;;;;;;;19.40;62.90;;;;;;5075380;28;19951;-64
2023/12/25 02:45:35;;;;;;;;;;;19.40;62.90;;;;;;5076299;28;19931;-64
2023/12/25 02:48:01;;;;;;;;;;;19.40;62.90;;;;;;5076174;28;19928;-64
2023/12/25 02:50:26;;;;;;;;;;;19.40;62.90;;;;;;5077329;28;19924;-64
2023/12/25 02:52:52;;;;;;;;;;;19.40;62.90;;;;;;5095060;28;19931;-63
2023/12/25 02:55:18;;;;;;;;;;;19.40;62.80;;;;;;5076289;28;19986;-64
2023/12/25 02:57:43;;;;;;;;;;;19.40;62.80;;;;;;5095888;28;19925;-64
2023/12/25 03:00:09;;;;;;;;;;;19.40;62.80;;;;;;5077892;28;19928;-63
2023/12/25 03:02:34;;;;;;;;;;;19.30;62.80;;;;;;5076292;28;19924;-64
2023/12/25 03:05:00;;;;;;;;;;;19.40;62.80;;;;;;5076615;28;20046;-64
2023/12/25 03:07:25;;;;;;;;;;;19.30;62.80;;;;;;5075516;28;19928;-64
2023/12/25 03:09:51;;;;;;;;;;;19.30;62.80;;;;;;5071389;28;19920;-64
2023/12/25 03:12:16;;;;;;;;;;;19.30;62.80;;;;;;5059936;28;19934;-64
2023/12/25 03:14:42;;;;;;;;;;;19.30;62.80;;;;;;5077898;28;19928;-64
2023/12/25 03:17:07;;;;;;;;;;;19.30;62.80;;;;;;5076961;28;19970;-64
2023/12/25 03:19:33;;;;;;;;;;;19.30;62.80;;;;;;5095641;28;20398;-64
2023/12/25 03:22:02;;;;;;;;;;;19.30;62.70;;;;;;5075609;28;19924;-64
2023/12/25 03:24:28;;;;;;;;;;;19.30;62.80;;;;;;5075694;28;20006;-64
2023/12/25 03:26:53;;;;;;;;;;;19.30;62.80;;;;;;5077164;28;20332;-64
2023/12/25 03:29:19;;;;;;;;;;;19.30;62.70;;;;;;5077146;28;19928;-64
2023/12/25 03:31:44;;;;;;;;;;;19.30;62.70;;;;;;5094959;28;19965;-64
2023/12/25 03:34:15;;;;;;;;;;;19.30;62.80;;;;;;5077406;28;19924;-64
2023/12/25 03:36:41;;;;;;;;;;;19.30;62.70;;;;;;5077039;28;20023;-64
2023/12/25 03:39:07;;;;;;;;;;;19.20;62.70;;;;;;5076501;28;20035;-64
2023/12/25 03:41:32;;;;;;;;;;;19.30;62.70;;;;;;5076470;28;20023;-64
2023/12/25 03:43:58;;;;;;;;;;;19.20;62.70;;;;;;5094864;28;20375;-65
2023/12/25 03:46:23;;;;;;;;;;;19.30;62.70;;;;;;5075820;28;19924;-64
2023/12/25 03:48:50;;;;;;;;;;;19.20;62.60;;;;;;5077025;28;20379;-64
2023/12/25 03:51:15;;;;;;;;;;;19.20;62.70;;;;;;5076159;28;19931;-64
2023/12/25 03:53:41;;;;;;;;;;;19.20;62.70;;;;;;5077118;28;20284;-64
2023/12/25 03:56:07;;;;;;;;;;;19.20;62.70;;;;;;5094735;28;19935;-64
2023/12/25 03:58:33;;;;;;;;;;;19.20;62.70;;;;;;5076019;28;20094;-64
2023/12/25 04:00:58;;;;;;;;;;;19.20;62.70;;;;;;5076500;28;20014;-64
2023/12/25 04:03:24;;;;;;;;;;;19.30;62.70;;;;;;5077158;28;20010;-64
2023/12/25 04:05:49;;;;;;;;;;;19.30;62.70;;;;;;5075967;28;19931;-64
2023/12/25 04:08:15;;;;;;;;;;;19.30;63.30;;;;;;5093996;28;19928;-65
2023/12/25 04:10:40;;;;;;;;;;;19.30;62.70;;;;;;5076533;28;19928;-64
2023/12/25 04:13:06;;;;;;;;;;;19.30;62.60;;;;;;5093725;28;20022;-65
2023/12/25 04:15:31;;;;;;;;;;;19.30;62.60;;;;;;5076825;28;19931;-64
2023/12/25 04:17:57;;;;;;;;;;;19.30;62.60;;;;;;5094579;28;19925;-64
2023/12/25 04:20:22;;;;;;;;;;;19.30;62.60;;;;;;5075964;28;19929;-64
2023/12/25 04:22:48;;;;;;;;;;;19.30;62.60;;;;;;5094668;28;20314;-64
2023/12/25 04:25:14;;;;;;;;;;;19.30;62.60;;;;;;5076131;28;19978;-64
2023/12/25 04:27:39;;;;;;;;;;;19.30;62.50;;;;;;5074829;28;19928;-65
2023/12/25 04:30:05;;;;;;;;;;;19.30;62.50;;;;;;5076282;28;19992;-64
2023/12/25 04:32:31;;;;;;;;;;;19.30;62.50;;;;;;5075277;28;20353;-64
2023/12/25 04:34:56;;;;;;;;;;;19.40;62.60;;;;;;5093072;28;19931;-64
2023/12/25 04:37:22;;;;;;;;;;;19.40;62.50;;;;;;5076361;28;19971;-64
2023/12/25 04:39:47;;;;;;;;;;;19.40;62.50;;;;;;5076112;28;20379;-64
2023/12/25 04:42:13;;;;;;;;;;;19.40;62.50;;;;;;5075436;28;20356;-64
2023/12/25 04:44:38;;;;;;;;;;;19.40;62.40;;;;;;5075985;28;19924;-64
2023/12/25 04:47:04;;;;;;;;;;;19.40;62.40;;;;;;5074659;28;19928;-64
2023/12/25 04:49:31;;;;;;;;;;;19.50;62.50;;;;;;5075333;28;19928;-64
2023/12/25 04:51:56;;;;;;;;;;;19.50;62.40;;;;;;5073864;28;19928;-64
2023/12/25 04:54:22;;;;;;;;;;;19.50;62.40;;;;;;5075227;28;19920;-64
2023/12/25 04:56:48;;;;;;;;;;;19.50;62.40;;;;;;5074992;28;19975;-64
2023/12/25 04:59:13;;;;;;;;;;;19.50;62.40;;;;;;5084036;28;19924;-64
2023/12/25 05:01:39;;;;;;;;;;;19.50;62.40;;;;;;5066571;28;19927;-64
2023/12/25 05:04:05;;;;;;;;;;;19.50;62.40;;;;;;5090472;28;20268;-64
2023/12/25 05:06:30;;;;;;;;;;;19.50;62.40;;;;;;5091015;28;19928;-64
2023/12/25 05:08:56;;;;;;;;;;;19.50;62.30;;;;;;5073422;28;20014;-64
2023/12/25 05:11:23;;;;;;;;;;;19.60;62.40;;;;;;5074432;28;19931;-64
2023/12/25 05:13:49;;;;;;;;;;;19.60;62.40;;;;;;5055368;28;19970;-64
2023/12/25 05:16:14;;;;;;;;;;;19.60;62.40;;;;;;5078625;28;19928;-64
2023/12/25 05:18:40;;;;;;;;;;;19.60;62.30;;;;;;5061838;28;19935;-64
2023/12/25 05:21:08;;;;;;;;;;;19.60;62.30;;;;;;5074368;28;19920;-65
2023/12/25 05:23:34;;;;;;;;;;;19.60;62.30;;;;;;5092224;28;19931;-64
2023/12/25 05:25:59;;;;;;;;;;;19.60;62.30;;;;;;5074933;28;19924;-64
2023/12/25 05:28:25;;;;;;;;;;;19.60;62.30;;;;;;5074997;28;19928;-64
2023/12/25 05:30:51;;;;;;;;;;;19.60;62.20;;;;;;5074100;28;19924;-65
2023/12/25 05:33:17;;;;;;;;;;;19.60;62.20;;;;;;5093906;28;19985;-65
2023/12/25 05:35:43;;;;;;;;;;;19.60;62.20;;;;;;5093356;28;19928;-64
2023/12/25 05:38:08;;;;;;;;;;;19.70;62.20;;;;;;5091065;28;19924;-64
2023/12/25 05:40:34;;;;;;;;;;;19.70;62.20;;;;;;5092570;28;19924;-64
2023/12/25 05:42:59;;;;;;;;;;;19.70;62.20;;;;;;5092929;28;20015;-64
2023/12/25 05:45:25;;;;;;;;;;;19.70;62.20;;;;;;5073919;28;19924;-64
2023/12/25 05:47:50;;;;;;;;;;;19.70;62.20;;;;;;5074971;28;20121;-64
2023/12/25 05:50:16;;;;;;;;;;;19.70;62.20;;;;;;5074613;28;20712;-64
2023/12/25 05:52:41;;;;;;;;;;;19.70;62.80;;;;;;5074010;28;19986;-64
2023/12/25 05:55:07;;;;;;;;;;;19.70;62.10;;;;;;5074724;28;19932;-64
2023/12/25 05:57:32;;;;;;;;;;;19.70;62.20;;;;;;5074801;28;20322;-64
2023/12/25 05:59:58;;;;;;;;;;;19.80;62.20;;;;;;5092177;28;19926;-64
2023/12/25 06:02:23;;;;;;;;;;;19.80;62.20;;;;;;5075186;28;19931;-64
2023/12/25 06:04:49;;;;;;;;;;;19.80;62.20;;;;;;5073949;28;20387;-66
2023/12/25 06:07:14;;;;;;;;;;;19.80;62.20;;;;;;5074439;28;19924;-64
2023/12/25 06:09:40;;;;;;;;;;;19.80;62.10;;;;;;5074986;28;20295;-64
2023/12/25 06:12:05;;;;;;;;;;;19.80;62.10;;;;;;5091744;28;19970;-64
2023/12/25 06:14:31;;;;;;;;;;;19.80;62.10;;;;;;5074775;28;19976;-64
2023/12/25 06:16:56;;;;;;;;;;;19.80;62.10;;;;;;5073827;28;19932;-64
2023/12/25 06:19:22;;;;;;;;;;;19.80;62.10;;;;;;5069360;28;19974;-64
2023/12/25 06:21:47;;;;;;;;;;;19.80;62.10;;;;;;5067848;28;19934;-65
2023/12/25 06:24:13;;;;;;;;;;;19.80;62.00;;;;;;5074347;28;19977;-64
2023/12/25 06:26:39;;;;;;;;;;;19.80;62.00;;;;;;5073890;28;19928;-64
2023/12/25 06:29:04;;;;;;;;;;;19.80;62.10;;;;;;5074465;28;19925;-64
2023/12/25 06:31:30;;;;;;;;;;;19.80;62.00;;;;;;5074512;28;19955;-64
2023/12/25 06:33:55;;;;;;;;;;;19.90;62.10;;;;;;5073565;28;20030;-65
2023/12/25 06:36:21;;;;;;;;;;;19.90;62.10;;;;;;5064831;28;19974;-64
2023/12/25 06:38:47;;;;;;;;;;;19.90;62.10;;;;;;5074561;28;19928;-64
2023/12/25 06:41:12;;;;;;;;;;;19.90;62.00;;;;;;5073057;28;19935;-64
2023/12/25 06:43:38;;;;;;;;;;;19.90;62.00;;;;;;5074445;28;19924;-64
2023/12/25 06:46:03;;;;;;;;;;;19.90;62.00;;;;;;5072459;28;19932;-64
2023/12/25 06:48:29;;;;;;;;;;;19.90;62.00;;;;;;5053894;28;20023;-65
2023/12/25 06:50:54;;;;;;;;;;;19.90;62.00;;;;;;5062043;28;20352;-65
2023/12/25 06:53:20;;;;;;;;;;;19.90;62.00;;;;;;5077159;28;19978;-64
2023/12/25 06:55:46;;;;;;;;;;;19.90;62.00;;;;;;5076632;28;20384;-65
2023/12/25 06:58:11;;;;;;;;;;;19.90;62.00;;;;;;5077801;28;20054;-65
2023/12/25 07:00:37;;;;;;;;;;;19.90;62.00;;;;;;5076303;28;19935;-64
2023/12/25 07:03:02;;;;;;;;;;;19.90;62.00;;;;;;5076844;28;19976;-64
2023/12/25 07:05:28;;;;;;;;;;;19.90;62.00;;;;;;5077589;28;20394;-64
2023/12/25 07:07:53;;;;;;;;;;;19.90;61.90;;;;;;5077347;28;19970;-64
2023/12/25 07:10:19;;;;;;;;;;;19.90;61.90;;;;;;5077320;28;20368;-64
2023/12/25 07:12:44;;;;;;;;;;;19.90;61.90;;;;;;5077690;28;19924;-64
2023/12/25 07:15:09;;;;;;;;;;;19.90;61.90;;;;;;5062291;28;19924;-65
2023/12/25 07:17:35;;;;;;;;;;;19.90;62.10;;;;;;5093147;28;20397;-64
2023/12/25 07:20:00;;;;;;;;;;;19.90;61.90;;;;;;5076637;28;19924;-64
2023/12/25 07:22:27;;;;;;;;;;;19.90;61.90;;;;;;5094717;28;20695;-65
2023/12/25 07:24:52;;;;;;;;;;;19.90;61.90;;;;;;5077183;28;19924;-65
2023/12/25 07:27:18;;;;;;;;;;;19.90;61.90;;;;;;5095619;28;19927;-65
2023/12/25 07:29:43;;;;;;;;;;;20.00;61.90;;;;;;5076957;28;19920;-65
2023/12/25 07:32:10;;;;;;;;;;;20.00;61.90;;;;;;5077131;28;19928;-64
2023/12/25 07:34:36;;;;;;;;;;;20.00;61.90;;;;;;5064911;28;19925;-64
2023/12/25 07:37:02;;;;;;;;;;;20.00;61.90;;;;;;5071167;28;19931;-63
2023/12/25 07:39:27;;;;;;;;;;;20.00;61.90;;;;;;5077383;28;19981;-64
2023/12/25 07:41:55;;;;;;;;;;;19.90;61.90;;;;;;5077248;28;19924;-63
2023/12/25 07:44:21;;;;;;;;;;;20.00;62.00;;;;;;5076180;28;19924;-63
2023/12/25 07:46:46;;;;;;;;;;;20.00;62.00;;;;;;5095518;28;20066;-61
2023/12/25 07:49:12;;;;;;;;;;;20.00;62.00;;;;;;5078277;28;19928;-64
2023/12/25 07:51:37;;;;;;;;;;;20.00;62.00;;;;;;5095328;28;19924;-64
2023/12/25 07:54:03;;;;;;;;;;;20.00;62.00;;;;;;5094909;28;20023;-64
2023/12/25 07:56:28;;;;;;;;;;;20.00;62.00;;;;;;5095058;28;20383;-64
2023/12/25 07:58:54;;;;;;;;;;;20.00;62.00;;;;;;5094085;28;19931;-64
2023/12/25 08:01:22;;;;;;;;;;;20.00;62.00;;;;;;5093874;28;19963;-63
2023/12/25 08:03:50;;;;;;;;;;;20.10;62.00;;;;;;5076563;28;20019;-62
2023/12/25 08:06:16;;;;;;;;;;;20.00;62.10;;;;;;5101290;28;20395;-63
2023/12/25 08:08:42;;;;;;;;;;;20.00;62.20;;;;;;5094660;28;19960;-63
2023/12/25 08:11:07;;;;;;;;;;;20.10;62.30;;;;;;5096665;28;19924;-62
2023/12/25 08:13:33;;;;;;;;;;;20.10;62.50;;;;;;5075440;28;20015;-63
2023/12/25 08:15:58;;;;;;;;;;;20.10;62.60;;;;;;5101444;28;20351;-64
2023/12/25 08:18:24;;;;;;;;;;;20.10;62.70;;;;;;5075708;28;19974;-64
2023/12/25 08:20:49;;;;;;;;;;;20.10;62.70;;;;;;5098850;28;20010;-63
2023/12/25 08:23:15;;;;;;;;;;;20.10;62.70;;;;;;5093196;28;19931;-64
2023/12/25 08:25:41;;;;;;;;;;;20.10;62.80;;;;;;5081700;28;19986;-65
2023/12/25 08:28:06;;;;;;;;;;;20.10;62.90;;;;;;5091055;28;19924;-65
2023/12/25 08:30:31;;;;;;;;;;;20.10;63.00;;;;;;5067605;28;20374;-64
2023/12/25 08:32:57;;;;;;;;;;;20.10;62.90;;;;;;5074271;28;19975;-65
2023/12/25 08:35:22;;;;;;;;;;;20.10;63.00;;;;;;5076193;28;20441;-65
2023/12/25 08:37:48;;;;;;;;;;;20.10;63.00;;;;;;5074823;28;19975;-66
2023/12/25 08:40:13;;;;;;;;;;;20.20;63.10;;;;;;5093075;28;20333;-64
2023/12/25 08:42:39;;;;;;;;;;;20.20;63.10;;;;;;5093480;28;19962;-64
2023/12/25 08:45:06;;;;;;;;;;;20.20;63.10;;;;;;5093820;28;19924;-64
2023/12/25 08:47:31;;;;;;;;;;;20.20;63.10;;;;;;5071142;28;19924;-64
2023/12/25 08:49:57;;;;;;;;;;;20.20;63.10;;;;;;5075166;28;19928;-64
2023/12/25 08:52:22;;;;;;;;;;;20.20;63.20;;;;;;5075317;28;20398;-62
2023/12/25 08:54:48;;;;;;;;;;;20.20;63.20;;;;;;5092956;28;20009;-62
2023/12/25 08:57:14;;;;;;;;;;;20.20;63.20;;;;;;5075579;28;19925;-65
2023/12/25 08:59:39;;;;;;;;;;;20.20;63.10;;;;;;5076421;28;19931;-65
2023/12/25 09:02:05;;;;;;;;;;;20.20;63.10;;;;;;5074548;28;19950;-64
2023/12/25 09:04:30;;;;;;;;;;;20.20;63.00;;;;;;5075598;28;19931;-60
2023/12/25 09:06:56;;;;;;;;;;;20.20;63.10;;;;;;5074870;28;20338;-60
2023/12/25 09:09:21;;;;;;;;;;;20.20;63.20;;;;;;5093245;28;19928;-61
2023/12/25 09:11:47;;;;;;;;;;;20.20;63.20;;;;;;5075258;28;20023;-62
2023/12/25 09:14:13;;;;;;;;;;;20.20;63.30;;;;;;5093429;28;19946;-62
2023/12/25 09:16:38;;;;;;;;;;;20.20;63.30;;;;;;5074742;28;20318;-61
2023/12/25 09:19:04;;;;;;;;;;;20.20;63.30;;;;;;5075532;28;20053;-62
2023/12/25 09:21:29;;;;;;;;;;;20.20;63.30;;;;;;5093384;28;20380;-62
2023/12/25 09:23:55;;;;;;;;;;;20.20;63.40;;;;;;5092686;28;19931;-62
2023/12/25 09:26:20;;;;;;;;;;;20.20;63.40;;;;;;5075564;28;19931;-62
2023/12/25 09:28:46;;;;;;;;;;;20.20;63.50;;;;;;5075025;28;20364;-63
2023/12/25 09:31:12;;;;;;;;;;;20.20;63.50;;;;;;5074686;28;19931;-63
2023/12/25 09:33:37;;;;;;;;;;;20.20;63.50;;;;;;5075459;28;19932;-62
2023/12/25 09:36:03;;;;;;;;;;;20.20;63.60;;;;;;5073620;28;19924;-63
2023/12/25 09:38:28;;;;;;;;;;;20.20;63.60;;;;;;5075000;28;19920;-63
2023/12/25 09:40:55;;;;;;;;;;;20.20;63.60;;;;;;5074484;28;19931;-63
2023/12/25 09:43:21;;;;;;;;;;;20.10;63.60;;;;;;5073681;28;19931;-62
2023/12/25 09:45:46;;;;;;;;;;;20.20;63.70;;;;;;5075094;28;19925;-63
2023/12/25 09:48:12;;;;;;;;;;;20.20;63.70;;;;;;5092459;28;19928;-61
2023/12/25 09:50:37;;;;;;;;;;;20.10;63.60;;;;;;5074272;28;19935;-62
2023/12/25 09:53:03;;;;;;;;;;;20.20;63.70;;;;;;5057877;28;19971;-63
2023/12/25 09:55:29;;;;;;;;;;;20.10;63.70;;;;;;5075351;28;19924;-62
2023/12/25 09:57:54;;;;;;;;;;;20.10;63.80;;;;;;5073984;28;19931;-62
2023/12/25 10:00:20;;;;;;;;;;;20.10;63.80;;;;;;5075392;28;19928;-62
2023/12/25 10:02:46;;;;;;;;;;;20.10;63.80;;;;;;5074778;28;19928;-63
2023/12/25 10:05:12;;;;;;;;;;;20.10;63.90;;;;;;5091957;28;19928;-63
2023/12/25 10:07:37;;;;;;;;;;;20.10;63.90;;;;;;5074269;28;19975;-63
2023/12/25 10:10:05;;;;;;;;;;;20.10;63.90;;;;;;5072981;28;19920;-63
2023/12/25 10:12:30;;;;;;;;;;;20.10;63.90;;;;;;5074087;28;19978;-64
2023/12/25 10:14:56;;;;;;;;;;;20.10;63.80;;;;;;5100238;28;19924;-63
2023/12/25 10:17:21;;;;;;;;;;;20.10;63.80;;;;;;5085095;28;19920;-64
2023/12/25 10:19:50;;;;;;;;;;;20.10;63.80;;;;;;5084538;28;19971;-64
2023/12/25 10:22:29;;;;;;;;;;;20.10;63.80;;;;;;5095408;28;19932;-64
2023/12/25 10:24:54;;;;;;;;;;;20.10;63.80;;;;;;5102593;28;20443;-64
2023/12/25 10:27:21;;;;;;;;;;;20.10;63.70;;;;;;5088351;28;20031;-70
2023/12/25 10:29:47;;;;;;;;;;;20.00;63.70;;;;;;5107167;28;19993;-62
2023/12/25 10:32:15;;;;;;;;;;;20.00;63.80;;;;;;5095919;28;20337;-62
2023/12/25 10:34:41;;;;;;;;;;;20.00;63.80;;;;;;5078328;28;20296;-63
2023/12/25 10:37:06;;;;;;;;;;;20.00;63.80;;;;;;5078133;28;19931;-63
2023/12/25 10:39:33;;;;;;;;;;;20.00;63.90;;;;;;5078291;28;19975;-63
2023/12/25 10:41:58;;;;;;;;;;;20.00;63.90;;;;;;5096635;28;19924;-63
2023/12/25 10:44:24;;;;;;;;;;;20.00;63.80;;;;;;5078256;28;19924;-63
2023/12/25 10:46:49;;;;;;;;;;;20.00;63.90;;;;;;5077895;28;19931;-63
2023/12/25 10:49:15;;;;;;;;;;;20.00;63.90;;;;;;5077523;28;20046;-63
2023/12/25 10:51:41;;;;;;;;;;;20.00;63.90;;;;;;5060869;28;19924;-63
2023/12/25 10:54:08;;;;;;;;;;;20.00;64.00;;;;;;5094980;28;20021;-63
2023/12/25 10:56:35;;;;;;;;;;;20.00;64.00;;;;;;5077690;28;20302;-63
2023/12/25 10:59:07;;;;;;;;;;;20.00;64.00;;;;;;5095328;28;19966;-63
2023/12/25 11:01:32;;;;;;;;;;;20.00;64.10;;;;;;5077338;28;19931;-63
2023/12/25 11:03:58;;;;;;;;;;;20.00;64.10;;;;;;5095794;28;19924;-63
2023/12/25 11:06:23;;;;;;;;;;;20.00;64.10;;;;;;5078047;28;19924;-64
2023/12/25 11:08:49;;;;;;;;;;;20.00;64.20;;;;;;5060474;28;19931;-64
2023/12/25 11:11:15;;;;;;;;;;;19.90;64.10;;;;;;5095587;28;20015;-64
2023/12/25 11:13:41;;;;;;;;;;;19.90;64.10;;;;;;5077726;28;19935;-64
2023/12/25 11:16:07;;;;;;;;;;;19.90;64.20;;;;;;5077252;28;19924;-64
2023/12/25 11:18:37;;;;;;;;;;;19.90;64.10;;;;;;5077973;28;19924;-64
2023/12/25 11:21:09;;;;;;;;;;;19.90;64.20;;;;;;5061586;28;19993;-63
2023/12/25 11:23:36;;;;;;;;;;;19.90;64.20;;;;;;5076888;28;20007;-64
2023/12/25 11:26:03;;;;;;;;;;;19.90;64.20;;;;;;5077153;28;19977;-63
2023/12/25 11:28:31;;;;;;;;;;;19.90;64.20;;;;;;5094632;28;20014;-64
2023/12/25 11:30:56;;;;;;;;;;;19.90;64.20;;;;;;5077618;28;19924;-64
2023/12/25 11:33:22;;;;;;;;;;;19.90;64.30;;;;;;5077465;28;19931;-63
2023/12/25 11:35:47;;;;;;;;;;;19.90;64.20;;;;;;5059325;28;20019;-64
2023/12/25 11:38:19;;;;;;;;;;;19.90;64.30;;;;;;5077091;28;20279;-64
2023/12/25 11:40:45;;;;;;;;;;;19.90;64.30;;;;;;5077442;28;19931;-63
2023/12/25 11:43:10;;;;;;;;;;;19.90;64.80;;;;;;5076109;28;19924;-63
2023/12/25 11:45:42;;;;;;;;;;;19.90;64.30;;;;;;5095264;28;20440;-63
2023/12/25 11:48:10;;;;;;;;;;;19.90;64.30;;;;;;5077182;28;19928;-63
2023/12/25 11:50:36;;;;;;;;;;;19.90;64.40;;;;;;5094481;28;19924;-64
2023/12/25 11:53:01;;;;;;;;;;;19.90;64.30;;;;;;5077222;28;19924;-63
2023/12/25 11:55:27;;;;;;;;;;;19.80;64.20;;;;;;5076470;28;19928;-64
2023/12/25 11:57:52;;;;;;;;;;;19.90;64.40;;;;;;5076403;28;19970;-64
2023/12/25 12:00:19;;;;;;;;;;;19.90;64.40;;;;;;5077171;28;20363;-64
2023/12/25 12:02:45;;;;;;;;;;;19.80;64.30;;;;;;5076761;28;19932;-64
2023/12/25 12:05:11;;;;;;;;;;;19.80;64.30;;;;;;5074405;28;20321;-64
2023/12/25 12:07:36;;;;;;;;;;;19.80;64.20;;;;;;5055926;28;20376;-64
2023/12/25 12:10:02;;;;;;;;;;;19.80;64.20;;;;;;5056655;28;19925;-64
2023/12/25 12:12:27;;;;;;;;;;;19.80;64.40;;;;;;5089597;28;19935;-64
2023/12/25 12:14:53;;;;;;;;;;;19.80;64.40;;;;;;5040333;28;19924;-64
2023/12/25 12:17:19;;;;;;;;;;;19.80;64.40;;;;;;5040576;28;19929;-65
2023/12/25 12:19:44;;;;;;;;;;;19.80;64.40;;;;;;5073944;28;20392;-65
2023/12/25 12:22:10;;;;;;;;;;;19.80;64.40;;;;;;5089751;28;20387;-63
2023/12/25 12:24:35;;;;;;;;;;;19.80;64.40;;;;;;5097113;28;20303;-63
2023/12/25 12:27:04;;;;;;;;;;;19.80;64.40;;;;;;5070908;28;19946;-64
2023/12/25 12:29:30;;;;;;;;;;;19.80;64.40;;;;;;5076336;28;19967;-63
2023/12/25 12:31:56;;;;;;;;;;;19.80;64.40;;;;;;5072350;28;20029;-66
2023/12/25 12:34:22;;;;;;;;;;;19.80;64.40;;;;;;5076326;28;19941;-62
2023/12/25 12:37:07;;;;;;;;;;;19.90;64.40;;;;;;5110544;28;19924;-64
2023/12/25 12:39:32;;;;;;;;;;;19.90;64.40;;;;;;5076131;28;19924;-64
2023/12/25 12:41:58;;;;;;;;;;;19.90;64.40;;;;;;5108714;28;19950;-64
2023/12/25 12:44:23;;;;;;;;;;;19.90;63.90;;;;;;5075835;28;20024;-64
2023/12/25 12:46:49;;;;;;;;;;;19.90;63.90;;;;;;5074745;28;20054;-64
2023/12/25 12:49:15;;;;;;;;;;;19.90;63.90;;;;;;5075934;28;19920;-64
2023/12/25 12:51:40;;;;;;;;;;;19.90;64.00;;;;;;5094482;28;19982;-64
2023/12/25 12:54:07;;;;;;;;;;;19.90;63.90;;;;;;5074705;28;19931;-64
2023/12/25 12:56:33;;;;;;;;;;;19.90;63.90;;;;;;5074952;28;20276;-64
2023/12/25 12:58:59;;;;;;;;;;;20.00;64.00;;;;;;5093788;28;19973;-64
2023/12/25 13:01:24;;;;;;;;;;;20.00;63.90;;;;;;5075180;28;20016;-64
2023/12/25 13:03:51;;;;;;;;;;;20.00;63.90;;;;;;5094151;28;20006;-64
2023/12/25 13:06:17;;;;;;;;;;;20.00;63.90;;;;;;5075703;28;19924;-65
2023/12/25 13:08:42;;;;;;;;;;;20.00;63.90;;;;;;5074984;28;19930;-64
2023/12/25 13:11:08;;;;;;;;;;;20.00;63.80;;;;;;5093744;28;19960;-64
2023/12/25 13:13:33;;;;;;;;;;;20.10;63.80;;;;;;5075561;28;19924;-64
2023/12/25 13:15:59;;;;;;;;;;;20.10;63.80;;;;;;5074174;28;20019;-64
2023/12/25 13:18:24;;;;;;;;;;;20.10;63.80;;;;;;5093011;28;19924;-64
2023/12/25 13:20:50;;;;;;;;;;;20.10;63.80;;;;;;5075830;28;19989;-64
2023/12/25 13:23:16;;;;;;;;;;;20.10;63.80;;;;;;5074732;28;20284;-61
2023/12/25 13:25:41;;;;;;;;;;;20.10;63.70;;;;;;5093532;28;19924;-64
2023/12/25 13:28:07;;;;;;;;;;;20.20;63.70;;;;;;5074230;28;19931;-63
2023/12/25 13:30:34;;;;;;;;;;;20.20;63.60;;;;;;5074126;28;20278;-62
2023/12/25 13:32:59;;;;;;;;;;;20.20;63.70;;;;;;5091912;28;19924;-61
2023/12/25 13:35:25;;;;;;;;;;;20.20;63.70;;;;;;5088611;28;19928;-62
2023/12/25 13:37:51;;;;;;;;;;;20.20;63.70;;;;;;5084474;28;19931;-63
2023/12/25 13:40:16;;;;;;;;;;;20.20;63.70;;;;;;5092332;28;19927;-63
2023/12/25 13:42:42;;;;;;;;;;;20.20;63.90;;;;;;5087867;28;20307;-63
2023/12/25 13:45:07;;;;;;;;;;;20.20;63.90;;;;;;5068425;28;19928;-63
2023/12/25 13:47:33;;;;;;;;;;;20.30;64.70;;;;;;5092613;28;19924;-63
2023/12/25 13:50:00;;;;;;;;;;;20.30;64.20;;;;;;5073823;28;20325;-64
2023/12/25 13:52:26;;;;;;;;;;;20.30;64.10;;;;;;5074943;28;19932;-64
2023/12/25 13:54:51;;;;;;;;;;;20.30;64.10;;;;;;5092873;28;19931;-64
2023/12/25 13:57:17;;;;;;;;;;;20.30;64.10;;;;;;5092237;28;19950;-64
2023/12/25 13:59:42;;;;;;;;;;;20.30;64.10;;;;;;5091971;28;19924;-63
2023/12/25 14:02:08;;;;;;;;;;;20.40;64.20;;;;;;5092631;28;19928;-63
2023/12/25 14:04:34;;;;;;;;;;;20.40;64.30;;;;;;5091907;28;19924;-64
2023/12/25 14:07:00;;;;;;;;;;;20.40;64.20;;;;;;5092758;28;20279;-63
2023/12/25 14:09:26;;;;;;;;;;;20.40;64.20;;;;;;5092459;28;19932;-63